Time;durP1;ratioP1;P1;durP2;ratioP2;P2;SDS_P1;SDS_P2;PMS_P1;PMS_P2;Temp;Humidity;BMP_temperature;BMP_pressure;BME280_temperature;BME280_humidity;BME280_pressure;Samples;Min_cycle;Max_cycle;Signal;HPM_P1;HPM_P2
2022/06/16 00:02:31;;;;;;;0.30;0.30;;;;;;;20.40;59.24;96688.50;10371832;28;20030;-20
2022/06/16 00:07:32;;;;;;;0.40;0.30;;;;;;;20.52;58.38;96685.88;10371834;28;20087;-21
2022/06/16 00:12:33;;;;;;;0.17;0.10;;;;;;;20.37;58.59;96684.31;10371630;28;20038;-22
2022/06/16 00:17:33;;;;;;;0.10;0.10;;;;;;;20.29;58.22;96683.53;10371910;28;20287;-20
2022/06/16 00:22:38;;;;;;;0.30;0.30;;;;;;;20.25;58.07;96671.72;10371435;28;20029;-21
2022/06/16 00:27:39;;;;;;;0.38;0.20;;;;;;;20.22;57.89;96656.47;10371464;28;20093;-21
2022/06/16 00:32:41;;;;;;;0.30;0.30;;;;;;;20.22;58.09;96656.47;10377551;28;20180;-21
2022/06/16 00:37:41;;;;;;;0.40;0.40;;;;;;;20.20;57.90;96640.38;10387971;28;20034;-21
2022/06/16 00:42:45;;;;;;;0.30;0.30;;;;;;;20.21;57.85;96648.00;10370581;28;20045;-21
2022/06/16 00:47:46;;;;;;;0.32;0.32;;;;;;;20.19;58.25;96628.53;10370445;28;20029;-22
2022/06/16 00:52:46;;;;;;;0.47;0.47;;;;;;;20.19;57.80;96636.16;10390697;28;20041;-21
2022/06/16 00:57:49;;;;;;;0.30;0.20;;;;;;;20.39;59.42;96635.97;10393050;28;20044;-21
2022/06/16 01:02:49;;;;;;;0.28;0.28;;;;;;;20.52;57.97;96631.59;10369756;28;20768;-21
2022/06/16 01:07:52;;;;;;;0.40;0.40;;;;;;;20.37;58.14;96633.47;10368972;28;20119;-21
2022/06/16 01:18:28;;;;;;;0.82;0.30;;;;;;;20.26;57.99;96627.63;10369628;28;20069;-20
2022/06/16 01:23:47;;;;;;;0.30;0.30;;;;;;;20.24;57.88;96626.78;10367622;28;20069;-21
2022/06/16 01:29:25;;;;;;;0.30;0.30;;;;;;;20.23;57.87;96631.03;10368572;28;20033;-21
2022/06/16 01:34:41;;;;;;;0.20;0.20;;;;;;;20.21;57.95;96621.72;10388898;28;20563;-21
2022/06/16 01:39:58;;;;;;;0.30;0.30;;;;;;;20.16;57.85;96613.28;10367066;28;20496;-21
2022/06/16 01:45:17;;;;;;;0.28;0.28;;;;;;;20.21;58.02;96622.59;10376656;28;20044;-20
2022/06/16 01:50:28;;;;;;;0.30;0.30;;;;;;;20.32;60.58;96637.72;10367002;28;20160;-22
2022/06/16 01:55:33;;;;;;;0.10;0.10;;;;;;;20.50;58.55;96631.66;10366554;28;20112;-21
2022/06/16 02:00:34;;;;;;;0.32;0.22;;;;;;;20.44;58.45;96651.19;10365812;28;20595;-21
2022/06/16 02:05:47;;;;;;;0.30;0.30;;;;;;;20.29;58.26;96655.56;10365652;28;20506;-21
2022/06/16 02:10:51;;;;;;;0.30;0.30;;;;;;;20.30;58.16;96672.50;10367984;28;20037;-21
2022/06/16 02:15:52;;;;;;;0.30;0.30;;;;;;;20.27;58.04;96683.53;10366389;28;20026;-21
2022/06/16 02:21:22;;;;;;;0.30;0.30;;;;;;;20.26;58.09;96691.19;10382209;28;20068;-20
2022/06/16 02:26:23;;;;;;;0.38;0.28;;;;;;;20.23;58.02;96688.66;10367563;28;20098;-22
2022/06/16 02:31:33;;;;;;;0.30;0.30;;;;;;;20.16;57.53;96676.84;10366207;28;20452;-20
2022/06/16 02:36:53;;;;;;;0.40;0.40;;;;;;;20.23;58.07;96678.47;10393938;28;20080;-20
2022/06/16 02:42:18;;;;;;;0.40;0.30;;;;;;;20.13;57.81;96654.84;10365601;28;20044;-21
2022/06/16 02:47:48;;;;;;;0.10;0.10;;;;;;;20.39;59.14;96669.03;10367189;28;20053;-21
2022/06/16 02:53:03;;;;;;;0.30;0.30;;;;;;;20.47;58.40;96662.19;10389761;28;20041;-21
2022/06/16 02:58:09;;;;;;;0.22;0.22;;;;;;;20.36;58.15;96667.38;10386193;28;20511;-21
2022/06/16 03:03:19;;;;;;;0.45;0.30;;;;;;;20.30;58.02;96667.41;10364821;28;20435;-21
2022/06/16 03:08:22;;;;;;;0.32;0.32;;;;;;;20.27;58.04;96664.91;10365052;28;20042;-22
2022/06/16 03:13:28;;;;;;;0.20;0.20;;;;;;;20.27;57.92;96667.44;10371859;28;20029;-21
2022/06/16 03:18:28;;;;;;;0.35;0.35;;;;;;;20.24;57.75;96668.31;10372344;28;20030;-21
2022/06/16 03:23:30;;;;;;;0.85;0.40;;;;;;;20.24;58.12;96668.31;10371699;28;20034;-21
2022/06/16 03:28:30;;;;;;;0.15;0.15;;;;;;;20.24;57.82;96670.00;10372936;28;20041;-21
2022/06/16 03:33:31;;;;;;;0.32;0.30;;;;;;;20.21;57.89;96673.44;10386579;28;20036;-21
2022/06/16 03:38:41;;;;;;;0.30;0.30;;;;;;;20.29;61.02;96670.81;10387605;28;20033;-20
2022/06/16 03:43:42;;;;;;;0.30;0.30;;;;;;;20.49;58.70;96665.56;10379504;28;20116;-21
2022/06/16 03:48:48;;;;;;;0.13;0.10;;;;;;;20.47;58.42;96674.06;10407101;28;20080;-21
2022/06/16 03:53:57;;;;;;;0.30;0.30;;;;;;;20.34;58.11;96675.00;10402273;28;20055;-21
2022/06/16 03:58:59;;;;;;;0.52;0.50;;;;;;;20.31;58.05;96684.34;10386646;28;20111;-21
2022/06/16 04:04:00;;;;;;;0.30;0.30;;;;;;;20.28;57.75;96690.31;10371288;28;20030;-22
2022/06/16 04:09:04;;;;;;;0.32;0.32;;;;;;;20.28;58.07;96699.66;10399140;28;20407;-21
2022/06/16 04:14:14;;;;;;;0.30;0.30;;;;;;;20.26;57.76;96704.72;10383021;28;20037;-21
2022/06/16 04:19:23;;;;;;;0.20;0.20;;;;;;;20.25;57.86;96714.94;10370411;28;20122;-21
2022/06/16 04:24:24;;;;;;;0.45;0.40;;;;;;;20.25;57.98;96720.03;10369211;28;20034;-21
2022/06/16 04:29:27;;;;;;;0.20;0.20;;;;;;;20.24;57.70;96708.13;10380449;28;20034;-21
2022/06/16 04:34:29;;;;;;;0.20;0.20;;;;;;;20.36;59.88;96708.06;10392279;28;20025;-21
2022/06/16 04:39:29;;;;;;;0.30;0.20;;;;;;;20.53;58.66;96707.91;10384651;28;20029;-20
2022/06/16 04:44:33;;;;;;;0.10;0.10;;;;;;;20.42;58.57;96703.75;10374840;28;20819;-20
2022/06/16 04:49:37;;;;;;;0.30;0.30;;;;;;;20.35;58.09;96711.47;10369259;28;20065;-20
2022/06/16 04:54:39;;;;;;;0.32;0.30;;;;;;;20.30;58.02;96706.41;10406454;28;20029;-24
2022/06/16 05:00:04;;;;;;;0.63;0.63;;;;;;;20.30;57.94;96713.19;10368976;28;20121;-22
2022/06/16 05:05:21;;;;;;;0.50;0.50;;;;;;;20.27;57.93;96710.66;10367760;28;20107;-21
2022/06/16 05:10:50;;;;;;;0.30;0.30;;;;;;;20.26;58.00;96720.00;10367814;28;20464;-21
2022/06/16 05:16:09;;;;;;;0.30;0.30;;;;;;;20.26;58.09;96721.69;10368064;28;20189;-20
2022/06/16 05:21:23;;;;;;;0.30;0.30;;;;;;;20.25;58.04;96717.47;10384357;28;20038;-21
2022/06/16 05:26:50;;;;;;;0.40;0.40;;;;;;;20.27;58.37;96725.94;10368139;28;20537;-21
2022/06/16 05:32:11;;;;;;;0.20;0.20;;;;;;;20.48;58.94;96724.91;10388066;28;20404;-20
2022/06/16 05:37:31;;;;;;;0.15;0.15;;;;;;;20.47;58.51;96727.47;10387736;28;20046;-21
2022/06/16 05:42:51;;;;;;;0.20;0.20;;;;;;;20.35;58.33;96736.88;10367825;28;20408;-21
2022/06/16 05:48:12;;;;;;;0.10;0.10;;;;;;;20.31;57.77;96730.13;10369108;28;20413;-21
2022/06/16 05:53:12;;;;;;;0.60;0.60;;;;;;;20.28;57.95;96745.41;10392136;28;20042;-20
2022/06/16 05:58:17;;;;;;;0.30;0.30;;;;;;;20.28;58.10;96765.75;10385884;28;20125;-20
2022/06/16 06:03:24;;;;;;;0.30;0.30;;;;;;;20.26;57.91;96752.22;10366381;28;20034;-21
2022/06/16 06:19:24;;;;;;;0.45;0.35;;;;;;;20.24;57.76;96769.16;10403533;28;20385;-22
2022/06/16 06:24:26;;;;;;;0.20;0.20;;;;;;;20.38;59.22;96784.31;10365987;28;20476;-22
2022/06/16 06:29:27;;;;;;;0.20;0.20;;;;;;;20.55;58.02;96791.84;10365947;28;20382;-22
2022/06/16 06:34:29;;;;;;;0.50;0.20;;;;;;;20.39;58.27;96795.34;10383183;28;20108;-21
2022/06/16 06:39:30;;;;;;;0.22;0.20;;;;;;;20.36;58.10;96804.69;10382018;28;20485;-20
2022/06/16 06:44:31;;;;;;;0.30;0.30;;;;;;;20.32;57.94;96826.75;10368725;28;20065;-21
2022/06/16 06:49:32;;;;;;;0.32;0.30;;;;;;;20.30;57.98;96819.97;10375669;28;20069;-21
2022/06/16 06:54:32;;;;;;;0.38;0.30;;;;;;;20.29;57.81;96820.81;10412296;28;20605;-21
2022/06/16 06:59:33;;;;;;;0.37;0.37;;;;;;;20.28;57.84;96821.69;10383664;28;20423;-23
2022/06/16 07:04:33;;;;;;;0.30;0.30;;;;;;;20.27;57.93;96830.16;10374435;28;20060;-22
2022/06/16 07:09:33;;;;;;;0.43;0.40;;;;;;;20.28;57.81;96834.41;10374750;28;20400;-21
2022/06/16 07:14:34;;;;;;;0.50;0.30;;;;;;;20.27;58.35;96832.72;10373895;28;20037;-21
2022/06/16 07:19:35;;;;;;;0.30;0.20;;;;;;;20.49;59.11;96861.41;10374585;28;20404;-22
2022/06/16 07:24:36;;;;;;;0.10;0.10;;;;;;;20.56;57.79;96845.22;10373678;28;20030;-21
2022/06/16 07:29:37;;;;;;;0.20;0.20;;;;;;;20.43;58.47;96852.94;10373407;28;20038;-21
2022/06/16 07:34:37;;;;;;;0.20;0.20;;;;;;;20.35;58.06;96844.50;10392355;28;20026;-21
2022/06/16 07:39:37;;;;;;;0.20;0.20;;;;;;;20.33;58.04;96850.50;10373080;28;20037;-21
2022/06/16 07:44:38;;;;;;;0.53;0.50;;;;;;;20.32;57.87;96856.41;10372594;28;20112;-21
2022/06/16 07:49:39;;;;;;;0.40;0.40;;;;;;;20.32;57.91;96858.94;10373237;28;20492;-21
2022/06/16 07:54:39;;;;;;;0.38;0.30;;;;;;;20.30;57.83;96855.56;10372516;28;20152;-23
2022/06/16 07:59:39;;;;;;;0.30;0.30;;;;;;;20.31;57.79;96854.72;10371088;28;20407;-20
2022/06/16 08:04:41;;;;;;;0.20;0.20;;;;;;;20.29;57.94;96861.50;10371314;28;20049;-21
2022/06/16 08:09:41;;;;;;;0.47;0.47;;;;;;;20.32;58.26;96866.56;10371824;28;20547;-21
2022/06/16 08:14:44;;;;;;;0.10;0.10;;;;;;;20.50;58.92;96880.91;10371546;28;20493;-20
2022/06/16 08:19:45;;;;;;;0.17;0.10;;;;;;;20.55;58.82;96883.41;10371838;28;20037;-20
2022/06/16 08:24:47;;;;;;;0.20;0.20;;;;;;;20.42;58.58;96885.19;10370926;28;20046;-21
2022/06/16 08:29:47;;;;;;;0.30;0.30;;;;;;;20.37;58.05;96891.16;10370924;28;20035;-19
2022/06/16 08:34:49;;;;;;;0.25;0.25;;;;;;;20.36;58.04;96903.88;10386261;28;20110;-21
2022/06/16 08:39:49;;;;;;;0.50;0.40;;;;;;;20.33;57.87;96907.25;10370536;28;20124;-21
2022/06/16 08:45:02;;;;;;;0.37;0.37;;;;;;;20.33;57.94;96908.97;10370383;28;20044;-20
2022/06/16 08:50:02;;;;;;;0.50;0.50;;;;;;;20.33;57.87;96917.44;10369941;28;20061;-21
2022/06/16 08:55:24;;;;;;;0.47;0.47;;;;;;;20.32;58.34;96913.19;10411320;28;20065;-21
2022/06/16 09:00:31;;;;;;;0.70;0.60;;;;;;;20.33;57.87;96927.59;10372262;28;20084;-20
2022/06/16 09:06:06;;;;;;;0.30;0.30;;;;;;;20.43;60.08;96925.03;10369676;28;20124;-21
2022/06/16 09:11:17;;;;;;;0.20;0.20;;;;;;;20.63;58.64;96930.84;10369717;28;20083;-22
2022/06/16 09:16:30;;;;;;;0.10;0.10;;;;;;;20.52;58.69;96939.38;10369659;28;20026;-20
2022/06/16 09:21:50;;;;;;;0.40;0.30;;;;;;;20.42;58.07;96948.75;10369126;28;20544;-20
2022/06/16 09:26:58;;;;;;;0.30;0.30;;;;;;;20.38;57.98;96947.91;10357932;28;20050;-20
2022/06/16 09:32:17;;;;;;;0.47;0.32;;;;;;;20.37;57.97;96953.88;10370847;28;20034;-21
2022/06/16 09:37:27;;;;;;;0.32;0.30;;;;;;;20.37;57.92;96956.41;10379632;28;20029;-20
2022/06/16 09:42:36;;;;;;;0.75;0.32;;;;;;;20.33;57.99;96949.66;10368340;28;20507;-21
2022/06/16 09:48:03;;;;;;;0.30;0.30;;;;;;;20.33;57.97;96955.56;10368411;28;20366;-20
2022/06/16 09:53:14;;;;;;;0.30;0.30;;;;;;;20.34;58.05;96958.97;10391929;28;20389;-20
2022/06/16 09:58:27;;;;;;;0.35;0.30;;;;;;;20.34;58.36;96954.72;10387546;28;20539;-22
2022/06/16 10:03:34;;;;;;;0.10;0.10;;;;;;;20.54;58.93;96963.97;10368190;28;20492;-20
2022/06/16 10:08:45;;;;;;;0.20;0.20;;;;;;;20.60;58.30;96963.94;10368556;28;20112;-20
2022/06/16 10:14:21;;;;;;;0.30;0.30;;;;;;;20.47;58.56;96971.63;10368130;28;20404;-21
2022/06/16 10:19:26;;;;;;;0.20;0.20;;;;;;;20.41;58.25;96976.75;10367311;28;20029;-21
2022/06/16 10:24:35;;;;;;;0.15;0.15;;;;;;;20.38;58.10;96976.75;10368282;28;20038;-20
2022/06/16 10:29:35;;;;;;;0.52;0.40;;;;;;;20.37;57.88;96974.22;10367635;28;20515;-21
2022/06/16 10:34:41;;;;;;;1.05;0.40;;;;;;;20.34;58.04;96969.16;10382261;28;20063;-20
2022/06/16 10:39:54;;;;;;;0.30;0.30;;;;;;;20.33;58.00;96967.47;10367833;28;20084;-20
2022/06/16 10:45:06;;;;;;;0.20;0.20;;;;;;;20.34;57.88;96979.31;10366548;28;20045;-22
2022/06/16 10:50:14;;;;;;;0.32;0.32;;;;;;;20.35;58.09;96976.75;10366802;28;20492;-20
2022/06/16 10:55:23;;;;;;;0.10;0.10;;;;;;;20.40;60.36;96975.03;10407054;28;20033;-20
2022/06/16 11:00:24;;;;;;;0.20;0.20;;;;;;;20.63;58.63;96978.34;10368940;28;20472;-21
2022/06/16 11:05:27;;;;;;;0.20;0.20;;;;;;;20.56;59.14;96977.50;10366421;28;20038;-22
2022/06/16 11:10:33;;;;;;;0.38;0.38;;;;;;;20.44;58.50;96975.03;10367064;28;20037;-20
2022/06/16 11:15:38;;;;;;;0.40;0.40;;;;;;;20.43;58.25;96975.88;10366180;28;20026;-21
2022/06/16 11:20:43;;;;;;;0.30;0.30;;;;;;;20.40;58.13;96975.88;10366195;28;20037;-20
2022/06/16 11:25:45;;;;;;;1.05;0.30;;;;;;;20.40;58.34;96980.13;10368391;28;20053;-22
2022/06/16 11:30:45;;;;;;;0.50;0.50;;;;;;;20.40;58.38;96980.13;10409837;28;20037;-20
2022/06/16 11:35:56;;;;;;;0.30;0.30;;;;;;;20.39;58.07;96986.91;10405840;28;20034;-20
2022/06/16 11:41:16;;;;;;;0.50;0.50;;;;;;;20.38;57.77;96987.75;10375527;28;20285;-20
2022/06/16 11:46:25;;;;;;;0.30;0.30;;;;;;;20.38;58.04;96978.44;10375054;28;20073;-21
2022/06/16 11:51:52;;;;;;;0.10;0.10;;;;;;;20.53;59.86;96982.63;10379290;28;20500;-21
2022/06/16 11:57:15;;;;;;;;;;;;;;;20.49;58.36;96965.69;10375541;28;20408;-21
2022/06/16 12:02:33;;;;;;;0.52;0.25;;;;;;;20.49;58.82;96977.56;10374306;28;19920;-21
2022/06/16 12:08:02;;;;;;;0.40;0.32;;;;;;;20.44;58.00;96977.56;10374740;28;20405;-20
2022/06/16 12:13:20;;;;;;;0.40;0.40;;;;;;;20.42;58.20;96981.81;10363359;28;20045;-20
2022/06/16 12:18:29;;;;;;;0.32;0.30;;;;;;;20.39;58.04;96979.28;10372477;28;20199;-21
2022/06/16 12:23:36;;;;;;;0.32;0.32;;;;;;;20.41;58.22;96976.75;10371239;28;20037;-20
2022/06/16 12:28:49;;;;;;;0.38;0.30;;;;;;;20.44;58.84;96977.56;10371288;28;20041;-21
2022/06/16 12:33:58;;;;;;;0.60;0.60;;;;;;;20.43;58.04;96977.56;10387941;28;20514;-20
2022/06/16 12:39:03;;;;;;;0.50;0.50;;;;;;;20.39;58.08;96969.09;10412288;28;20102;-20
2022/06/16 12:44:20;;;;;;;0.55;0.40;;;;;;;20.51;60.81;96963.97;10377595;28;20034;-20
2022/06/16 12:49:29;;;;;;;0.20;0.20;;;;;;;20.69;58.49;96955.41;10371016;28;20072;-22
2022/06/16 12:54:39;;;;;;;0.20;0.20;;;;;;;20.55;59.23;96960.56;10370099;28;20029;-21
2022/06/16 12:59:57;;;;;;;0.30;0.30;;;;;;;20.46;58.24;96958.06;10370461;28;20037;-21
2022/06/16 13:05:01;;;;;;;0.22;0.22;;;;;;;20.45;58.18;96953.00;10370396;28;20030;-21
2022/06/16 13:10:04;;;;;;;0.32;0.32;;;;;;;20.43;58.17;96957.22;10370143;28;20045;-21
2022/06/16 13:15:18;;;;;;;0.40;0.40;;;;;;;20.42;57.92;96951.31;10369272;28;20393;-21
2022/06/16 13:20:22;;;;;;;0.40;0.40;;;;;;;20.43;58.29;96953.00;10369438;28;20287;-20
2022/06/16 13:25:42;;;;;;;0.40;0.40;;;;;;;20.42;57.98;96948.75;10369126;28;20045;-21
2022/06/16 13:31:09;;;;;;;0.50;0.40;;;;;;;20.42;58.14;96953.00;10368829;28;20033;-20
2022/06/16 13:36:27;;;;;;;0.60;0.60;;;;;;;20.44;59.93;96947.06;10383304;28;20041;-20
2022/06/16 13:41:35;;;;;;;0.22;0.22;;;;;;;20.66;58.94;96945.25;10369642;28;20041;-21
2022/06/16 13:47:09;;;;;;;0.22;0.15;;;;;;;20.62;58.96;96948.69;10368727;28;20034;-21
2022/06/16 13:52:13;;;;;;;0.40;0.40;;;;;;;20.52;58.67;96939.38;10384856;28;20464;-22
2022/06/16 13:57:20;;;;;;;0.30;0.10;;;;;;;20.48;58.15;96942.81;10395418;28;20065;-21
2022/06/16 14:02:22;;;;;;;0.20;0.20;;;;;;;20.44;58.25;96947.06;10368772;28;20041;-20
2022/06/16 14:07:22;;;;;;;0.40;0.40;;;;;;;20.45;57.79;96947.91;10367458;28;20034;-20
2022/06/16 14:13:00;;;;;;;0.30;0.30;;;;;;;20.44;58.12;96944.50;10367112;28;20038;-22
2022/06/16 14:18:09;;;;;;;0.40;0.40;;;;;;;20.43;58.20;96950.44;10368440;28;20296;-20
2022/06/16 14:23:31;;;;;;;0.50;0.50;;;;;;;20.44;58.01;96941.09;10367330;28;20044;-21
2022/06/16 14:28:40;;;;;;;0.60;0.60;;;;;;;20.43;57.96;96944.50;10367297;28;20038;-21
2022/06/16 14:34:06;;;;;;;0.25;0.20;;;;;;;20.62;59.32;96957.16;10383009;28;20044;-20
2022/06/16 14:39:26;;;;;;;0.20;0.20;;;;;;;20.74;58.04;96951.16;10367752;28;20197;-19
2022/06/16 14:44:34;;;;;;;0.30;0.30;;;;;;;20.59;59.58;96966.47;10366539;28;20038;-20
2022/06/16 14:49:41;;;;;;;0.22;0.22;;;;;;;20.51;58.24;96951.28;10366980;28;20029;-20
2022/06/16 14:54:49;;;;;;;0.40;0.40;;;;;;;20.48;58.21;96948.72;10404181;28;20128;-20
2022/06/16 14:59:52;;;;;;;1.08;0.43;;;;;;;20.46;58.23;96947.88;10373810;28;20172;-21
2022/06/16 15:04:58;;;;;;;0.35;0.35;;;;;;;20.45;57.89;96935.19;10366846;28;20041;-20
2022/06/16 15:09:59;;;;;;;0.37;0.37;;;;;;;20.43;58.23;96930.09;10374705;28;20571;-21
2022/06/16 15:14:59;;;;;;;0.38;0.38;;;;;;;20.45;58.02;96935.19;10374223;28;20026;-21
2022/06/16 15:20:02;;;;;;;0.37;0.37;;;;;;;20.45;58.12;96943.66;10374004;28;20140;-22
2022/06/16 15:25:05;;;;;;;0.55;0.55;;;;;;;20.48;59.88;96938.53;10374013;28;20520;-21
2022/06/16 15:30:29;;;;;;;0.20;0.20;;;;;;;20.71;59.53;96943.53;10373812;28;20038;-20
2022/06/16 15:40:49;;;;;;;0.30;0.30;;;;;;;20.56;58.78;96949.53;10373062;28;20563;-23
2022/06/16 15:45:58;;;;;;;0.40;0.38;;;;;;;20.52;58.37;96958.03;10373203;28;20564;-22
2022/06/16 15:51:13;;;;;;;0.40;0.40;;;;;;;20.48;58.09;96953.81;10379797;28;20630;-20
2022/06/16 15:56:22;;;;;;;0.35;0.35;;;;;;;20.49;58.16;96954.66;10408699;28;20052;-21
2022/06/16 16:01:22;;;;;;;0.45;0.45;;;;;;;20.48;58.16;96961.44;10372305;28;20596;-20
2022/06/16 16:06:23;;;;;;;0.40;0.40;;;;;;;20.48;58.22;96963.97;10371524;28;20044;-21
2022/06/16 16:11:26;;;;;;;0.60;0.60;;;;;;;20.47;58.05;96956.38;10372085;28;20038;-20
2022/06/16 16:16:27;;;;;;;0.60;0.40;;;;;;;20.47;58.02;96961.47;10370917;28;20034;-20
2022/06/16 16:21:36;;;;;;;0.20;0.20;;;;;;;20.63;60.17;96963.09;10371004;28;20041;-20
2022/06/16 16:26:37;;;;;;;0.20;0.20;;;;;;;20.76;58.41;96970.66;10371014;28;20065;-21
2022/06/16 16:31:52;;;;;;;0.20;0.20;;;;;;;20.61;59.29;96980.91;10391247;28;20119;-20
2022/06/16 16:36:57;;;;;;;0.22;0.20;;;;;;;20.54;58.54;96974.13;10410200;28;20108;-21
2022/06/16 16:48:14;;;;;;;0.47;0.30;;;;;;;20.50;58.09;96976.69;10406520;28;20060;-20
2022/06/16 16:53:15;;;;;;;0.40;0.40;;;;;;;20.50;58.11;96986.88;10396996;28;20037;-20
2022/06/16 16:58:19;;;;;;;0.43;0.43;;;;;;;20.49;58.11;96982.66;10395367;28;20116;-20
2022/06/16 17:03:19;;;;;;;0.30;0.30;;;;;;;20.47;57.80;96975.00;10399228;28;20045;-21
2022/06/16 17:08:20;;;;;;;0.50;0.50;;;;;;;20.47;58.30;96980.09;10399441;28;20037;-20
2022/06/16 17:13:20;;;;;;;0.33;0.30;;;;;;;20.55;60.52;96980.09;10408185;28;20091;-21
2022/06/16 17:18:20;;;;;;;0.23;0.23;;;;;;;20.76;59.74;96992.69;10400656;28;20037;-21
2022/06/16 17:23:21;;;;;;;0.10;0.10;;;;;;;20.69;59.05;96994.44;10395276;28;20292;-20
2022/06/16 17:28:21;;;;;;;0.40;0.20;;;;;;;20.59;58.86;97002.09;10398241;28;20087;-20
2022/06/16 17:33:26;;;;;;;0.30;0.30;;;;;;;20.55;58.26;97006.34;10398338;28;20049;-20
2022/06/16 17:38:27;;;;;;;0.30;0.30;;;;;;;20.49;58.31;97015.72;10399160;28;20288;-24
2022/06/16 17:43:27;;;;;;;0.25;0.25;;;;;;;20.52;58.00;97021.63;10389094;28;20120;-21
2022/06/16 17:48:28;;;;;;;0.30;0.30;;;;;;;20.51;57.89;97019.94;10391419;28;20043;-22
2022/06/16 18:04:06;;;;;;;0.40;0.40;;;;;;;20.49;57.61;97025.88;10392827;28;20108;-20
2022/06/16 18:09:07;;;;;;;0.30;0.30;;;;;;;20.62;59.86;97013.13;10396700;28;20112;-21
2022/06/16 18:14:09;;;;;;;0.30;0.30;;;;;;;20.80;58.84;97013.03;10390514;28;20455;-20
2022/06/16 18:19:10;;;;;;;0.20;0.20;;;;;;;20.67;59.12;97021.59;10396590;28;20040;-21
2022/06/16 18:24:24;;;;;;;0.35;0.35;;;;;;;20.59;58.33;97022.44;10393318;28;20515;-21
2022/06/16 18:29:29;;;;;;;0.30;0.30;;;;;;;20.49;58.09;97021.66;10393077;28;20042;-20
2022/06/16 18:34:29;;;;;;;0.38;0.38;;;;;;;20.52;58.03;97034.34;10399056;28;20029;-20
2022/06/16 18:39:31;;;;;;;0.70;0.40;;;;;;;20.52;58.25;97036.03;10398850;28;20037;-20
2022/06/16 18:44:31;;;;;;;0.43;0.43;;;;;;;20.50;58.14;97017.41;10389775;28;20289;-22
2022/06/16 18:49:33;;;;;;;0.40;0.40;;;;;;;20.50;58.07;97018.25;10397856;28;20052;-22
2022/06/16 18:54:34;;;;;;;0.20;0.20;;;;;;;20.50;57.98;97025.03;10400462;28;20038;-20
2022/06/16 18:59:34;;;;;;;0.43;0.30;;;;;;;20.51;58.40;97047.06;10405178;28;20034;-20
2022/06/16 19:04:34;;;;;;;0.10;0.10;;;;;;;20.71;59.82;97047.88;10399596;28;20484;-21
2022/06/16 19:09:35;;;;;;;0.15;0.15;;;;;;;20.77;58.51;97048.69;10402453;28;20530;-20
2022/06/16 19:14:35;;;;;;;0.30;0.30;;;;;;;20.63;58.77;97059.78;10395650;28;20049;-21
2022/06/16 19:19:36;;;;;;;0.23;0.23;;;;;;;20.57;58.26;97052.97;10399325;28;20041;-21
2022/06/16 19:24:36;;;;;;;0.20;0.20;;;;;;;20.53;58.12;97053.00;10399152;28;20038;-20
2022/06/16 19:29:37;;;;;;;0.60;0.32;;;;;;;20.51;58.05;97058.09;10399821;28;20057;-20
2022/06/16 19:34:37;;;;;;;0.37;0.30;;;;;;;20.51;58.06;97059.78;10402631;28;20514;-20
2022/06/16 19:39:40;;;;;;;0.40;0.30;;;;;;;20.51;58.07;97075.91;10408384;28;20442;-21
2022/06/16 19:55:20;;;;;;;0.20;0.20;;;;;;;20.59;60.87;97104.72;10403414;28;20026;-20
2022/06/16 20:00:27;;;;;;;0.20;0.20;;;;;;;20.79;58.96;97118.22;10398682;28;20065;-21
2022/06/16 20:05:30;;;;;;;0.60;0.20;;;;;;;20.70;59.02;97138.63;10400174;28;20071;-20
2022/06/16 20:10:31;;;;;;;0.13;0.13;;;;;;;20.61;58.63;97138.63;10396570;28;20119;-21
2022/06/16 20:15:32;;;;;;;0.22;0.22;;;;;;;20.55;58.13;97137.81;10405523;28;20044;-20
2022/06/16 20:20:36;;;;;;;0.32;0.32;;;;;;;20.51;58.16;97139.50;10400448;28;20523;-21
2022/06/16 20:25:37;;;;;;;0.30;0.30;;;;;;;20.53;57.96;97150.50;10398322;28;20041;-20
2022/06/16 20:30:37;;;;;;;0.40;0.40;;;;;;;20.52;57.92;97153.91;10400658;28;20529;-20
2022/06/16 20:35:38;;;;;;;0.52;0.30;;;;;;;20.52;58.00;97148.81;10399869;28;20037;-21
2022/06/16 20:40:44;;;;;;;0.50;0.30;;;;;;;20.53;58.11;97152.19;10405155;28;20045;-20
2022/06/16 20:45:47;;;;;;;0.40;0.40;;;;;;;20.51;58.12;97152.22;10393787;28;20084;-21
2022/06/16 20:50:48;;;;;;;0.32;0.30;;;;;;;20.71;59.58;97142.84;10405293;28;20025;-20
2022/06/16 20:55:49;;;;;;;0.30;0.20;;;;;;;20.74;58.58;97140.31;10399658;28;20025;-22
2022/06/16 21:06:16;;;;;;;0.20;0.20;;;;;;;20.54;57.95;97152.22;10396882;28;20125;-21
2022/06/16 21:16:37;;;;;;;0.30;0.30;;;;;;;20.54;58.03;97157.28;10388238;28;20488;-22
2022/06/16 21:21:37;;;;;;;0.60;0.40;;;;;;;20.54;57.94;97159.00;10400648;28;20041;-21
2022/06/16 21:26:38;;;;;;;1.50;0.40;;;;;;;20.53;57.96;97160.69;10400856;28;20037;-20
2022/06/16 21:31:39;;;;;;;0.30;0.30;;;;;;;20.53;57.95;97170.88;10401711;28;20117;-21
2022/06/16 21:36:40;;;;;;;0.50;0.50;;;;;;;20.54;58.00;97174.28;10388538;28;20038;-20
2022/06/16 21:41:40;;;;;;;0.20;0.20;;;;;;;20.62;60.68;97175.94;10402495;28;20041;-20
2022/06/16 21:46:41;;;;;;;0.20;0.20;;;;;;;20.81;59.01;97192.88;10387965;28;20038;-20
2022/06/16 21:51:42;;;;;;;0.13;0.13;;;;;;;20.69;59.01;97182.72;10403296;28;20385;-20
2022/06/16 21:56:43;;;;;;;0.20;0.20;;;;;;;20.64;58.47;97204.75;10392996;28;20326;-22
2022/06/16 22:01:43;;;;;;;0.68;0.50;;;;;;;20.58;57.85;97199.72;10396009;28;20033;-21
2022/06/16 22:06:44;;;;;;;0.32;0.32;;;;;;;20.58;58.04;97206.47;10396555;28;20492;-21
2022/06/16 22:17:04;;;;;;;0.63;0.60;;;;;;;20.55;58.20;97214.13;10399394;28;20021;-20
2022/06/16 22:22:04;;;;;;;0.30;0.30;;;;;;;20.54;58.09;97213.25;10388672;28;20040;-21
2022/06/16 22:27:05;;;;;;;0.70;0.40;;;;;;;20.53;58.06;97214.13;10398156;28;20503;-21
2022/06/16 22:32:13;;;;;;;0.43;0.35;;;;;;;20.54;57.98;97218.34;10399110;28;20044;-20
2022/06/16 22:37:14;;;;;;;0.43;0.30;;;;;;;20.73;59.61;97212.38;10392488;28;20480;-22
2022/06/16 22:42:15;;;;;;;0.10;0.10;;;;;;;20.83;58.29;97196.28;10399717;28;20033;-25
2022/06/16 22:47:15;;;;;;;0.20;0.20;;;;;;;20.71;58.71;97209.00;10409405;28;20248;-20
2022/06/16 22:52:16;;;;;;;0.20;0.20;;;;;;;20.64;58.43;97237.00;10404468;28;20138;-22
2022/06/16 22:57:17;;;;;;;0.20;0.20;;;;;;;20.60;57.95;97227.66;10372325;28;20293;-21
2022/06/16 23:02:18;;;;;;;0.50;0.30;;;;;;;20.58;58.03;97235.31;10369196;28;20040;-21
2022/06/16 23:07:37;;;;;;;0.38;0.38;;;;;;;20.57;57.98;97236.16;10368747;28;20041;-21
2022/06/16 23:12:37;;;;;;;0.57;0.50;;;;;;;20.55;58.13;97230.22;10370542;28;20037;-21
2022/06/16 23:17:48;;;;;;;0.30;0.30;;;;;;;20.52;58.05;97219.19;10410418;28;20468;-21
2022/06/16 23:22:50;;;;;;;0.25;0.20;;;;;;;20.52;57.99;97217.50;10376522;28;20393;-22
2022/06/16 23:27:51;;;;;;;0.45;0.40;;;;;;;20.57;58.83;97233.59;10372211;28;20103;-22
2022/06/16 23:32:51;;;;;;;0.30;0.30;;;;;;;20.78;59.24;97231.06;10390529;28;20533;-20
2022/06/16 23:37:52;;;;;;;0.20;0.20;;;;;;;20.78;59.09;97225.97;10393558;28;20387;-20
2022/06/16 23:42:54;;;;;;;0.38;0.30;;;;;;;20.67;58.47;97222.59;10400470;28;20037;-20
2022/06/16 23:53:13;;;;;;;0.40;0.40;;;;;;;20.59;58.18;97221.75;10401343;28;20488;-20
2022/06/16 23:58:19;;;;;;;0.20;0.20;;;;;;;20.58;58.03;97230.25;10393483;28;20045;-20
